| time (UTC) | temp F | wind direction | speed MPH | gust MPH | rain 1hr in | rain 24hr in | rain mn in | humidity % | barometer mb |
| 20260510225104 | 51 | 166 | 4.0 | 11.0 | 0.12 | 0.66 | 1.44 | 99 | 1013.5 |
| 20260510224804 | 51 | 166 | 5.0 | 11.0 | 0.11 | 0.65 | 1.43 | 99 | 1013.5 |
| 20260510224505 | 51 | 170 | 6.0 | 11.0 | 0.12 | 0.65 | 1.43 | 99 | 1013.3 |
| 20260510224205 | 51 | 170 | 5.0 | 11.0 | 0.11 | 0.64 | 1.42 | 99 | 1013.4 |
| 20260510223305 | 51 | 176 | 6.0 | 17.0 | 0.11 | 0.64 | 1.42 | 99 | 1013.4 |
| 20260510222704 | 51 | 194 | 4.0 | 17.0 | 0.13 | 0.64 | 1.42 | 99 | 1013.4 |
| 20260510222405 | 51 | 193 | 13.0 | 17.0 | 0.13 | 0.64 | 1.42 | 99 | 1013.4 |
| 20260510222105 | 51 | 197 | 9.0 | 11.0 | 0.13 | 0.64 | 1.42 | 99 | 1013.3 |
| 20260510221504 | 51 | 178 | 4.0 | 6.0 | 0.11 | 0.61 | 1.39 | 99 | 1013.4 |
| 20260510221205 | 51 | 178 | 3.0 | 6.0 | 0.11 | 0.61 | 1.39 | 99 | 1013.4 |
| 20260510220905 | 51 | 167 | 3.0 | 8.0 | 0.09 | 0.60 | 1.38 | 99 | 1013.1 |
| 20260510220604 | 51 | 162 | 2.0 | 8.0 | 0.08 | 0.59 | 1.37 | 99 | 1013.3 |
| 20260510220304 | 51 | 157 | 3.0 | 8.0 | 0.07 | 0.58 | 1.36 | 99 | 1013.3 |
| 20260510220005 | 51 | 159 | 6.0 | 8.0 | 0.05 | 0.56 | 1.33 | 99 | 1013.3 |
| 20260510215705 | 51 | 166 | 6.0 | 8.0 | 0.05 | 0.56 | 1.33 | 99 | 1013.4 |
| 20260510215404 | 51 | 178 | 6.0 | 8.0 | 0.04 | 0.54 | 1.32 | 99 | 1013.3 |
| 20260510215105 | 51 | 177 | 4.0 | 8.0 | 0.04 | 0.54 | 1.32 | 99 | 1013.3 |
| 20260510214804 | 51 | 174 | 5.0 | 8.0 | 0.04 | 0.54 | 1.32 | 99 | 1013.1 |
| 20260510214505 | 51 | 162 | 4.0 | 8.0 | 0.04 | 0.53 | 1.31 | 99 | 1013.3 |
| 20260510213904 | 51 | 141 | 0.0 | 4.0 | 0.05 | 0.53 | 1.31 | 99 | 1013.1 |
| 20260510213604 | 51 | 138 | 2.0 | 4.0 | 0.06 | 0.53 | 1.31 | 99 | 1013.2 |
| 20260510213304 | 51 | 0 | 0.0 | 0.0 | 0.06 | 0.52 | 1.30 | 99 | 1013.2 |
| 20260510213005 | 51 | 0 | 0.0 | 0.0 | 0.07 | 0.51 | 1.29 | 99 | 1013.3 |
| 20260510212705 | 51 | 0 | 0.0 | 0.0 | 0.08 | 0.51 | 1.29 | 99 | 1013.3 |
| 20260510212105 | 51 | 0 | 0.0 | 0.0 | 0.08 | 0.51 | 1.29 | 99 | 1013.0 |
| 20260510211804 | 51 | 0 | 0.0 | 0.0 | 0.09 | 0.51 | 1.29 | 99 | 1013.2 |
| 20260510211504 | 51 | 0 | 0.0 | 0.0 | 0.09 | 0.51 | 1.29 | 99 | 1013.2 |
| 20260510211204 | 51 | 0 | 0.0 | 0.0 | 0.09 | 0.51 | 1.29 | 99 | 1013.2 |
| 20260510210905 | 51 | 0 | 0.0 | 0.0 | 0.11 | 0.51 | 1.29 | 99 | 1013.2 |
| 20260510210604 | 51 | 0 | 0.0 | 0.0 | 0.11 | 0.51 | 1.29 | 99 | 1012.8 |
| 20260510210305 | 51 | 314 | 0.0 | 2.0 | 0.12 | 0.51 | 1.29 | 99 | 1013.0 |
| 20260510210005 | 51 | 314 | 0.0 | 2.0 | 0.14 | 0.51 | 1.29 | 99 | 1013.0 |
| 20260510205705 | 51 | 170 | 0.0 | 2.0 | 0.18 | 0.51 | 1.29 | 99 | 1013.1 |
| 20260510205105 | 51 | 149 | 0.0 | 9.0 | 0.27 | 0.51 | 1.29 | 99 | 1013.2 |
| 20260510204806 | 51 | 127 | 0.0 | 9.0 | 0.28 | 0.51 | 1.29 | 99 | 1013.0 |
| 20260510204505 | 51 | 120 | 1.0 | 9.0 | 0.27 | 0.50 | 1.28 | 99 | 1012.8 |
| 20260510204204 | 51 | 86 | 4.0 | 6.0 | 0.27 | 0.48 | 1.26 | 99 | 1012.8 |
| 20260510203304 | 51 | 67 | 1.0 | 4.0 | 0.25 | 0.46 | 1.24 | 99 | 1013.0 |
| 20260510203005 | 51 | 60 | 0.0 | 2.0 | 0.22 | 0.44 | 1.22 | 99 | 1012.9 |
| 20260510202704 | 51 | 60 | 0.0 | 2.0 | 0.21 | 0.43 | 1.20 | 99 | 1012.8 |
| 20260510202404 | 51 | 58 | 1.0 | 2.0 | 0.21 | 0.43 | 1.20 | 99 | 1012.7 |
| 20260510201804 | 51 | 350 | 0.0 | 6.0 | 0.20 | 0.41 | 1.19 | 99 | 1012.7 |
| 20260510201504 | 52 | 351 | 0.0 | 6.0 | 0.20 | 0.41 | 1.19 | 99 | 1012.7 |
| 20260510200905 | 51 | 344 | 1.0 | 4.0 | 0.20 | 0.40 | 1.18 | 98 | 1012.8 |
| 20260510200604 | 51 | 339 | 2.0 | 2.0 | 0.21 | 0.40 | 1.18 | 98 | 1012.5 |
| 20260510200304 | 52 | 0 | 0.0 | 0.0 | 0.22 | 0.39 | 1.17 | 98 | 1012.7 |
| 20260510200005 | 52 | 0 | 0.0 | 0.0 | 0.21 | 0.37 | 1.15 | 98 | 1012.5 |
| 20260510195704 | 52 | 0 | 0.0 | 0.0 | 0.18 | 0.32 | 1.10 | 98 | 1012.4 |
| 20260510195404 | 52 | 0 | 0.0 | 0.0 | 0.14 | 0.26 | 1.04 | 98 | 1012.3 |
| 20260510195104 | 52 | 0 | 0.0 | 0.0 | 0.12 | 0.22 | 1.00 | 98 | 1012.5 |
| 20260510194505 | 51 | 160 | 0.0 | 4.0 | 0.12 | 0.22 | 1.00 | 98 | 1012.3 |
| 20260510193904 | 51 | 154 | 0.0 | 4.0 | 0.11 | 0.21 | 0.99 | 98 | 1012.2 |
| 20260510193605 | 51 | 153 | 2.0 | 4.0 | 0.11 | 0.21 | 0.99 | 98 | 1012.5 |
| 20260510193304 | 51 | 149 | 4.0 | 4.0 | 0.11 | 0.21 | 0.99 | 98 | 1012.3 |
| 20260510193005 | 51 | 150 | 3.0 | 4.0 | 0.11 | 0.21 | 0.99 | 98 | 1012.3 |
| 20260510192704 | 51 | 147 | 3.0 | 8.0 | 0.11 | 0.21 | 0.99 | 98 | 1012.5 |
| 20260510191804 | 51 | 150 | 4.0 | 7.0 | 0.12 | 0.21 | 0.99 | 98 | 1012.3 |
| 20260510191205 | 51 | 157 | 2.0 | 4.0 | 0.12 | 0.20 | 0.98 | 98 | 1012.4 |
| 20260510190904 | 51 | 155 | 3.0 | 7.0 | 0.12 | 0.20 | 0.98 | 98 | 1012.4 |
| 20260510190304 | 52 | 137 | 4.0 | 7.0 | 0.08 | 0.17 | 0.94 | 98 | 1012.4 |
| 20260510190005 | 52 | 135 | 5.0 | 7.0 | 0.07 | 0.15 | 0.93 | 98 | 1012.3 |
| 20260510185704 | 52 | 135 | 2.0 | 4.0 | 0.06 | 0.14 | 0.92 | 98 | 1012.4 |
| 20260510185404 | 53 | 0 | 0.0 | 0.0 | 0.04 | 0.12 | 0.90 | 98 | 1012.2 |
| 20260510185105 | 52 | 0 | 0.0 | 0.0 | 0.02 | 0.11 | 0.89 | 98 | 1012.1 |
| 20260510184804 | 52 | 0 | 0.0 | 0.0 | 0.02 | 0.11 | 0.89 | 98 | 1012.2 |
| 20260510184504 | 52 | 0 | 0.0 | 0.0 | 0.02 | 0.11 | 0.89 | 98 | 1012.2 |
| 20260510184204 | 52 | 135 | 0.0 | 2.0 | 0.02 | 0.11 | 0.89 | 98 | 1012.0 |
| 20260510183904 | 52 | 135 | 0.0 | 2.0 | 0.02 | 0.11 | 0.89 | 98 | 1012.2 |
| 20260510183604 | 53 | 135 | 0.0 | 2.0 | 0.02 | 0.11 | 0.89 | 98 | 1012.2 |
| 20260510183305 | 52 | 135 | 0.0 | 2.0 | 0.02 | 0.11 | 0.89 | 98 | 1012.1 |
| 20260510182104 | 52 | 1 | 0.0 | 2.0 | 0.01 | 0.09 | 0.87 | 97 | 1012.1 |
| 20260510181805 | 52 | 347 | 0.0 | 2.0 | 0.01 | 0.09 | 0.87 | 97 | 1012.2 |
| 20260510180905 | 52 | 1 | 0.0 | 4.0 | 0.00 | 0.08 | 0.86 | 97 | 1012.0 |
| 20260510180304 | 52 | 353 | 0.0 | 4.0 | 0.00 | 0.08 | 0.86 | 97 | 1011.9 |
| 20260510180005 | 53 | 347 | 0.0 | 4.0 | 0.00 | 0.08 | 0.86 | 97 | 1011.9 |
| 20260510175704 | 52 | 1 | 2.0 | 4.0 | 0.01 | 0.08 | 0.86 | 97 | 1012.0 |
| 20260510175404 | 52 | 1 | 0.0 | 2.0 | 0.02 | 0.08 | 0.86 | 97 | 1012.1 |
| 20260510175104 | 52 | 1 | 0.0 | 2.0 | 0.02 | 0.08 | 0.86 | 97 | 1012.1 |
| 20260510174805 | 52 | 1 | 0.0 | 2.0 | 0.05 | 0.08 | 0.86 | 97 | 1011.9 |
| 20260510174505 | 52 | 297 | 1.0 | 2.0 | 0.08 | 0.08 | 0.86 | 97 | 1012.3 |
| 20260510174204 | 53 | 309 | 0.0 | 2.0 | 0.08 | 0.08 | 0.86 | 97 | 1012.3 |
| 20260510173904 | 52 | 336 | 0.0 | 4.0 | 0.08 | 0.08 | 0.86 | 97 | 1012.2 |
| 20260510173605 | 52 | 344 | 0.0 | 4.0 | 0.08 | 0.08 | 0.86 | 96 | 1012.2 |
| 20260510173304 | 51 | 347 | 2.0 | 4.0 | 0.08 | 0.08 | 0.86 | 96 | 1012.4 |
| 20260510173004 | 52 | 345 | 2.0 | 4.0 | 0.08 | 0.08 | 0.86 | 96 | 1012.5 |
| 20260510172704 | 52 | 331 | 2.0 | 4.0 | 0.08 | 0.08 | 0.86 | 96 | 1012.4 |
| 20260510172104 | 52 | 0 | 0.0 | 0.0 | 0.08 | 0.08 | 0.86 | 96 | 1012.6 |
| 20260510171804 | 52 | 334 | 0.0 | 2.0 | 0.08 | 0.08 | 0.86 | 96 | 1012.4 |
| 20260510171505 | 52 | 325 | 0.0 | 2.0 | 0.08 | 0.08 | 0.86 | 96 | 1012.2 |
| 20260510170904 | 52 | 269 | 1.0 | 11.0 | 0.08 | 0.08 | 0.86 | 95 | 1012.5 |
| 20260510170604 | 52 | 251 | 2.0 | 13.0 | 0.08 | 0.08 | 0.86 | 95 | 1012.4 |
| 20260510170304 | 52 | 235 | 4.0 | 18.0 | 0.08 | 0.08 | 0.86 | 95 | 1012.4 |
| 20260510170004 | 52 | 230 | 5.0 | 20.0 | 0.08 | 0.08 | 0.86 | 94 | 1012.5 |
| 20260510165704 | 52 | 231 | 5.0 | 22.0 | 0.07 | 0.07 | 0.85 | 94 | 1012.2 |
| 20260510165404 | 52 | 227 | 9.0 | 30.0 | 0.06 | 0.06 | 0.84 | 92 | 1012.4 |
| 20260510165104 | 52 | 217 | 11.0 | 30.0 | 0.05 | 0.05 | 0.83 | 89 | 1012.1 |
| 20260510164504 | 56 | 170 | 15.0 | 24.0 | 0.00 | 0.00 | 0.78 | 75 | 1011.9 |
| 20260510164204 | 58 | 162 | 9.0 | 17.0 | 0.00 | 0.00 | 0.78 | 73 | 1011.4 |
| 20260510163904 | 59 | 159 | 11.0 | 18.0 | 0.00 | 0.00 | 0.78 | 68 | 1011.5 |
| 20260510163604 | 59 | 162 | 11.0 | 18.0 | 0.00 | 0.00 | 0.78 | 66 | 1011.5 |
| 20260510163304 | 59 | 167 | 11.0 | 18.0 | 0.00 | 0.00 | 0.78 | 67 | 1011.3 |
| 20260510162704 | 59 | 185 | 9.0 | 15.0 | 0.00 | 0.00 | 0.78 | 65 | 1011.2 |
| 20260510161804 | 60 | 200 | 8.0 | 11.0 | 0.00 | 0.00 | 0.78 | 64 | 1011.0 |